createdAt,value
2018-08-14T04:00:30.443Z,76.00
2018-08-14T04:01:30.431Z,80.00
2018-08-14T04:02:30.409Z,88.00
2018-08-14T04:03:30.403Z,96.00
2018-08-14T04:04:30.382Z,100.00
2018-08-14T04:05:30.391Z,112.00
2018-08-14T04:06:30.359Z,124.00
2018-08-14T04:07:30.352Z,132.00
2018-08-14T04:08:30.371Z,140.00
2018-08-14T04:09:30.328Z,148.00
2018-08-14T04:10:30.317Z,164.00
2018-08-14T04:11:30.307Z,200.00
2018-08-14T04:12:30.299Z,212.00
2018-08-14T04:13:30.289Z,228.00
2018-08-14T04:14:30.275Z,244.00
2018-08-14T04:15:30.256Z,292.00
2018-08-14T04:16:30.248Z,308.00
2018-08-14T04:17:30.254Z,272.00
2018-08-14T04:18:30.253Z,284.00
2018-08-14T04:19:30.212Z,304.00
2018-08-14T04:20:30.201Z,340.00
2018-08-14T04:21:30.191Z,336.00
2018-08-14T04:22:30.182Z,420.00
2018-08-14T04:23:30.176Z,440.00
2018-08-14T04:24:30.191Z,416.00
2018-08-14T04:25:30.146Z,384.00
2018-08-14T04:26:30.133Z,384.00
2018-08-14T04:27:30.119Z,412.00
2018-08-14T04:28:30.127Z,428.00
2018-08-14T04:29:30.100Z,448.00
2018-08-14T04:30:30.112Z,456.00
2018-08-14T04:31:30.080Z,460.00
2018-08-14T04:32:30.073Z,488.00
2018-08-14T04:33:30.072Z,520.00
2018-08-14T04:34:30.048Z,540.00
2018-08-14T04:35:30.028Z,568.00
2018-08-14T04:36:30.022Z,584.00
2018-08-14T04:37:30.019Z,600.00
2018-08-14T04:38:30.016Z,628.00
2018-08-14T04:39:29.994Z,620.00
2018-08-14T04:40:29.974Z,588.00
2018-08-14T04:41:29.962Z,568.00
2018-08-14T04:42:29.960Z,592.00
2018-08-14T04:43:29.984Z,596.00
2018-08-14T04:44:29.927Z,600.00
2018-08-14T04:45:29.933Z,612.00
2018-08-14T04:46:29.906Z,640.00
2018-08-14T04:47:29.903Z,668.00
2018-08-14T04:48:29.897Z,732.00
2018-08-14T04:49:29.877Z,816.00
2018-08-14T04:50:29.864Z,864.00
2018-08-14T04:51:29.881Z,984.00
2018-08-14T04:52:29.843Z,1020.00
2018-08-14T04:53:29.841Z,1164.00
2018-08-14T04:54:29.824Z,1280.00
2018-08-14T04:55:29.821Z,1232.00
2018-08-14T04:56:29.799Z,1148.00
2018-08-14T04:57:29.796Z,1300.00
2018-08-14T04:58:29.782Z,1244.00
2018-08-14T04:59:29.775Z,1076.00
2018-08-14T05:00:29.748Z,968.00
2018-08-14T05:01:29.739Z,1040.00
2018-08-14T05:02:29.728Z,1292.00
2018-08-14T05:03:29.739Z,1496.00
2018-08-14T05:04:29.754Z,1476.00
2018-08-14T05:05:29.695Z,1496.00
2018-08-14T05:06:29.686Z,1528.00
2018-08-14T05:07:29.670Z,1376.00
2018-08-14T05:08:29.681Z,1648.00
2018-08-14T05:09:29.656Z,1720.00
2018-08-14T05:10:29.667Z,1464.00
2018-08-14T05:11:29.628Z,1372.00
2018-08-14T05:12:29.616Z,1148.00
2018-08-14T05:13:29.612Z,1088.00
2018-08-14T05:14:29.638Z,1232.00
2018-08-14T05:15:29.590Z,1220.00
2018-08-14T05:16:29.571Z,1104.00
2018-08-14T05:17:29.557Z,1136.00
2018-08-14T05:18:29.556Z,1160.00
2018-08-14T05:19:29.559Z,1164.00
2018-08-14T05:20:29.527Z,1156.00
2018-08-14T05:21:29.513Z,1144.00
2018-08-14T05:22:29.502Z,1152.00
2018-08-14T05:23:29.504Z,1172.00
2018-08-14T05:24:29.477Z,1184.00
2018-08-14T05:25:29.467Z,1196.00
2018-08-14T05:26:29.463Z,1216.00
2018-08-14T05:27:29.446Z,1360.00
2018-08-14T05:28:29.446Z,1408.00
2018-08-14T05:29:29.420Z,1268.00
2018-08-14T05:30:29.421Z,1300.00
2018-08-14T05:31:29.424Z,1304.00
2018-08-14T05:32:29.392Z,1276.00
2018-08-14T05:33:29.470Z,1268.00
2018-08-14T05:34:29.368Z,1348.00
2018-08-14T05:35:29.386Z,1464.00
2018-08-14T05:36:29.343Z,1720.00
2018-08-14T05:37:29.360Z,1928.00
2018-08-14T05:38:29.334Z,2052.00
2018-08-14T05:39:29.351Z,1724.00
2018-08-14T05:40:29.302Z,1440.00
2018-08-14T05:41:29.293Z,1420.00
2018-08-14T05:42:29.276Z,1440.00
2018-08-14T05:43:29.378Z,1448.00
2018-08-14T05:44:29.258Z,1440.00
2018-08-14T05:45:29.242Z,1452.00
2018-08-14T05:46:29.233Z,1468.00
2018-08-14T05:47:29.223Z,1492.00
2018-08-14T05:48:29.225Z,1496.00
2018-08-14T05:49:29.212Z,1480.00
2018-08-14T05:50:29.238Z,1484.00
2018-08-14T05:51:29.175Z,1468.00
2018-08-14T05:52:29.171Z,1472.00
2018-08-14T05:53:29.199Z,1484.00
2018-08-14T05:54:29.217Z,1516.00
2018-08-14T05:55:29.135Z,1584.00
2018-08-14T05:56:29.122Z,1648.00
2018-08-14T05:57:29.125Z,1668.00
2018-08-14T05:58:29.108Z,1700.00
2018-08-14T05:59:29.095Z,1784.00
2018-08-14T06:00:29.073Z,1824.00
2018-08-14T06:01:29.062Z,1836.00
2018-08-14T06:02:29.051Z,1836.00
2018-08-14T06:03:29.065Z,1876.00
2018-08-14T06:04:29.040Z,1900.00
2018-08-14T06:05:29.017Z,1964.00
2018-08-14T06:06:29.006Z,1976.00
2018-08-14T06:07:28.997Z,1972.00
2018-08-14T06:08:28.989Z,1984.00
2018-08-14T06:09:28.985Z,2004.00
2018-08-14T06:10:28.963Z,2036.00
2018-08-14T06:11:28.980Z,2076.00
2018-08-14T06:12:28.943Z,2096.00
2018-08-14T06:13:28.937Z,2196.00
2018-08-14T06:14:28.931Z,2524.00
2018-08-14T06:15:28.934Z,3304.00
2018-08-14T06:16:28.896Z,4328.00
2018-08-14T06:17:28.886Z,5472.00
2018-08-14T06:18:28.879Z,6216.00
2018-08-14T06:19:28.873Z,7248.00
2018-08-14T06:20:28.859Z,8212.00
2018-08-14T06:21:28.837Z,8356.00
2018-08-14T06:22:28.854Z,8460.00
2018-08-14T06:23:28.822Z,8648.00
2018-08-14T06:24:28.826Z,8844.00
2018-08-14T06:25:28.794Z,9180.00
2018-08-14T06:26:28.791Z,9212.00
2018-08-14T06:27:28.778Z,9504.00
2018-08-14T06:28:28.785Z,9584.00
2018-08-14T06:29:28.763Z,9932.00
2018-08-14T06:30:28.758Z,10028.00
2018-08-14T06:31:28.728Z,10016.00
2018-08-14T06:32:28.722Z,10116.00
2018-08-14T06:33:28.706Z,10200.00
2018-08-14T06:34:28.724Z,10580.00
2018-08-14T06:35:28.699Z,10604.00
2018-08-14T06:36:28.674Z,10876.00
2018-08-14T06:37:28.660Z,10796.00
2018-08-14T06:38:28.649Z,10240.00
2018-08-14T06:39:28.651Z,9060.00
2018-08-14T06:40:28.646Z,7252.00
2018-08-14T06:41:28.614Z,6940.00
2018-08-14T06:42:28.602Z,6352.00
2018-08-14T06:43:28.597Z,6492.00
2018-08-14T06:44:28.630Z,8204.00
2018-08-14T06:45:28.569Z,6760.00
2018-08-14T06:46:28.603Z,5296.00
2018-08-14T06:47:28.548Z,5816.00
2018-08-14T06:48:28.551Z,5736.00
2018-08-14T06:49:28.538Z,4816.00
2018-08-14T06:50:28.513Z,6476.00
2018-08-14T06:51:28.505Z,6068.00
2018-08-14T06:52:28.496Z,6064.00
2018-08-14T06:53:28.481Z,5356.00
2018-08-14T06:54:28.504Z,6044.00
2018-08-14T06:55:28.458Z,6764.00
2018-08-14T06:56:28.453Z,10012.00
2018-08-14T06:57:28.440Z,10020.00
2018-08-14T06:58:28.425Z,8572.00
2018-08-14T06:59:28.426Z,9712.00
2018-08-14T07:00:28.404Z,10028.00
2018-08-14T07:01:28.392Z,9972.00
2018-08-14T07:02:28.379Z,8820.00
2018-08-14T07:03:28.373Z,9848.00
2018-08-14T07:04:28.369Z,9172.00
2018-08-14T07:05:28.350Z,10284.00
2018-08-14T07:06:28.337Z,10508.00
2018-08-14T07:07:28.324Z,3376.00
2018-08-14T07:08:28.317Z,3616.00
2018-08-14T07:09:28.317Z,3832.00
2018-08-14T07:10:28.293Z,4672.00
2018-08-14T07:11:28.284Z,4744.00
2018-08-14T07:12:28.278Z,5264.00
2018-08-14T07:13:28.264Z,9652.00
2018-08-14T07:14:28.267Z,11340.00
2018-08-14T07:15:28.244Z,11564.00
2018-08-14T07:16:28.277Z,11456.00
2018-08-14T07:17:28.222Z,12108.00
2018-08-14T07:18:28.203Z,12084.00
2018-08-14T07:19:28.205Z,12740.00
2018-08-14T07:20:28.180Z,13156.00
2018-08-14T07:21:28.169Z,12796.00
2018-08-14T07:22:28.176Z,8464.00
2018-08-14T07:23:28.154Z,9364.00
2018-08-14T07:24:28.150Z,10544.00
2018-08-14T07:25:28.126Z,9956.00
2018-08-14T07:26:28.114Z,9592.00
2018-08-14T07:27:28.102Z,8900.00
2018-08-14T07:28:28.094Z,9920.00
2018-08-14T07:29:28.089Z,10312.00
2018-08-14T07:30:28.081Z,8336.00
2018-08-14T07:31:28.059Z,7736.00
2018-08-14T07:32:28.050Z,7048.00
2018-08-14T07:33:28.043Z,6968.00
2018-08-14T07:34:28.039Z,7412.00
2018-08-14T07:35:28.014Z,6576.00
2018-08-14T07:36:28.002Z,7236.00
2018-08-14T07:37:27.999Z,10728.00
2018-08-14T07:38:27.990Z,13356.00
2018-08-14T07:39:27.980Z,11644.00
2018-08-14T07:40:27.960Z,16800.00
2018-08-14T07:41:27.980Z,22720.00
2018-08-14T07:42:27.937Z,49440.00
2018-08-14T07:43:27.929Z,36096.00
2018-08-14T07:44:27.927Z,9852.00
2018-08-14T07:45:27.946Z,24896.00
2018-08-14T07:46:27.894Z,39520.00
2018-08-14T07:47:27.884Z,8336.00
2018-08-14T07:48:27.874Z,17952.00
2018-08-14T07:49:27.870Z,19776.00
2018-08-14T07:50:27.854Z,10408.00
2018-08-14T07:51:27.858Z,9460.00
2018-08-14T07:52:27.824Z,8664.00
2018-08-14T07:53:27.817Z,8180.00
2018-08-14T07:54:27.821Z,13360.00
2018-08-14T07:55:27.793Z,8100.00
2018-08-14T07:56:27.782Z,7392.00
2018-08-14T07:57:27.771Z,6392.00
2018-08-14T07:58:27.831Z,7160.00
2018-08-14T07:59:27.854Z,11416.00
2018-08-14T08:00:27.754Z,19840.00
2018-08-14T08:01:27.741Z,18464.00
2018-08-14T08:02:27.747Z,20800.00
2018-08-14T08:03:27.705Z,23168.00
2018-08-14T08:04:27.712Z,23872.00
2018-08-14T08:05:27.695Z,22560.00
2018-08-14T08:06:27.736Z,20096.00
2018-08-14T08:07:27.664Z,23616.00
2018-08-14T08:08:27.652Z,16064.00
2018-08-14T08:09:27.637Z,12156.00
2018-08-14T08:10:27.680Z,11420.00
2018-08-14T08:11:27.619Z,9492.00
2018-08-14T08:12:27.619Z,9776.00
2018-08-14T08:13:27.597Z,6896.00
2018-08-14T08:14:27.582Z,7940.00
2018-08-14T08:15:27.583Z,7956.00
2018-08-14T08:16:27.561Z,5220.00
2018-08-14T08:17:27.553Z,3828.00
2018-08-14T08:18:27.560Z,3300.00
2018-08-14T08:19:27.525Z,3164.00
2018-08-14T08:20:27.524Z,3096.00
2018-08-14T08:21:27.505Z,3216.00
2018-08-14T08:22:27.506Z,3564.00
2018-08-14T08:23:27.487Z,5544.00
2018-08-14T08:24:27.482Z,7596.00
2018-08-14T08:25:27.477Z,8532.00
2018-08-14T08:26:27.457Z,10068.00
2018-08-14T08:27:27.437Z,11368.00
2018-08-14T08:28:27.425Z,11000.00
2018-08-14T08:29:27.432Z,9164.00
2018-08-14T08:30:27.418Z,8528.00
2018-08-14T08:31:27.454Z,8192.00
2018-08-14T08:32:27.383Z,8156.00
2018-08-14T08:33:27.375Z,7752.00
2018-08-14T08:34:27.376Z,8128.00
2018-08-14T08:35:27.361Z,8384.00
2018-08-14T08:36:27.339Z,8704.00
2018-08-14T08:37:27.330Z,8924.00
2018-08-14T08:38:27.317Z,9224.00
2018-08-14T08:39:27.303Z,9860.00
2018-08-14T08:40:27.303Z,9708.00
2018-08-14T08:41:27.285Z,10212.00
2018-08-14T08:42:27.314Z,9772.00
2018-08-14T08:43:27.264Z,10504.00
2018-08-14T08:44:27.250Z,10792.00
2018-08-14T08:45:27.248Z,11084.00
2018-08-14T08:46:27.229Z,11148.00
2018-08-14T08:47:27.216Z,11336.00
2018-08-14T08:48:27.209Z,11252.00
2018-08-14T08:49:27.197Z,10772.00
2018-08-14T08:50:27.196Z,10500.00
2018-08-14T08:51:27.195Z,8768.00
2018-08-14T08:52:27.166Z,9812.00
2018-08-14T08:53:27.149Z,12456.00
2018-08-14T08:54:27.139Z,14928.00
2018-08-14T08:55:27.143Z,16960.00
2018-08-14T08:56:27.132Z,18080.00
2018-08-14T08:57:27.112Z,13936.00
2018-08-14T08:58:27.200Z,11044.00
2018-08-14T08:59:27.085Z,8636.00
2018-08-14T09:00:27.084Z,7188.00
2018-08-14T09:01:27.066Z,7980.00
2018-08-14T09:02:27.088Z,10512.00
2018-08-14T09:03:27.059Z,11228.00
2018-08-14T09:04:27.032Z,10712.00
2018-08-14T09:05:27.033Z,12324.00
2018-08-14T09:06:27.024Z,14960.00
2018-08-14T09:07:27.002Z,10696.00
2018-08-14T09:08:26.995Z,9592.00
2018-08-14T09:09:26.982Z,9240.00
2018-08-14T09:10:26.978Z,8536.00
2018-08-14T09:11:26.964Z,8588.00
2018-08-14T09:12:26.941Z,7964.00
2018-08-14T09:13:26.951Z,8176.00
2018-08-14T09:14:26.924Z,6668.00
2018-08-14T09:15:26.922Z,5892.00
2018-08-14T09:16:26.902Z,4716.00
2018-08-14T09:17:26.887Z,4568.00
2018-08-14T09:18:26.878Z,4808.00
2018-08-14T09:19:26.871Z,5132.00
2018-08-14T09:20:26.883Z,5536.00
2018-08-14T09:21:26.842Z,7140.00
2018-08-14T09:22:26.930Z,8376.00
2018-08-14T09:23:26.828Z,8308.00
2018-08-14T09:24:26.813Z,8444.00
2018-08-14T09:25:26.830Z,8924.00
2018-08-14T09:26:26.784Z,10052.00
2018-08-14T09:27:26.779Z,11584.00
2018-08-14T09:28:26.766Z,11608.00
2018-08-14T09:29:26.756Z,14048.00
2018-08-14T09:30:26.760Z,48416.00
2018-08-14T09:31:26.731Z,16512.00
2018-08-14T09:32:26.722Z,65280.00
2018-08-14T09:33:26.719Z,26880.00
2018-08-14T09:34:26.705Z,67264.00
2018-08-14T09:35:26.708Z,15968.00
2018-08-14T09:36:26.679Z,20736.00
2018-08-14T09:37:26.672Z,20896.00
2018-08-14T09:38:26.662Z,14624.00
2018-08-14T09:39:26.649Z,16000.00
2018-08-14T09:40:26.662Z,15424.00
2018-08-14T09:41:26.626Z,11000.00
2018-08-14T09:42:26.611Z,9304.00
2018-08-14T09:43:26.607Z,9180.00
2018-08-14T09:44:26.588Z,9712.00
2018-08-14T09:45:26.605Z,8840.00
2018-08-14T09:46:26.568Z,7952.00
2018-08-14T09:47:26.572Z,7012.00
2018-08-14T09:48:26.551Z,6580.00
2018-08-14T09:49:26.540Z,6992.00
2018-08-14T09:50:26.534Z,8228.00
2018-08-14T09:51:26.609Z,8624.00
2018-08-14T09:52:26.530Z,8688.00
2018-08-14T09:53:26.484Z,8664.00
2018-08-14T09:54:26.526Z,7904.00
2018-08-14T09:55:26.475Z,12500.00
2018-08-14T09:56:26.452Z,12300.00
2018-08-14T09:57:26.439Z,9364.00
2018-08-14T09:58:26.439Z,8124.00
2018-08-14T09:59:26.420Z,10208.00
2018-08-14T10:00:26.418Z,11208.00
2018-08-14T10:01:26.418Z,9080.00
2018-08-14T10:02:26.389Z,10316.00
2018-08-14T10:03:26.373Z,10356.00
2018-08-14T10:04:26.375Z,8232.00
2018-08-14T10:05:26.374Z,9756.00
2018-08-14T10:06:26.458Z,12028.00
2018-08-14T10:07:26.331Z,11824.00
2018-08-14T10:08:26.323Z,11724.00
2018-08-14T10:09:26.314Z,10828.00
2018-08-14T10:10:26.298Z,11880.00
2018-08-14T10:11:26.339Z,12392.00
2018-08-14T10:12:26.291Z,12532.00
2018-08-14T10:13:26.261Z,9260.00
2018-08-14T10:14:26.252Z,8500.00
2018-08-14T10:15:26.243Z,6956.00
2018-08-14T10:16:26.249Z,7768.00
2018-08-14T10:17:26.224Z,5012.00
2018-08-14T10:18:26.214Z,4956.00
2018-08-14T10:19:26.197Z,4784.00
2018-08-14T10:20:26.192Z,4148.00
2018-08-14T10:21:26.194Z,4432.00
2018-08-14T10:22:26.167Z,4720.00
2018-08-14T10:23:26.151Z,6564.00
2018-08-14T10:24:26.150Z,8108.00
2018-08-14T10:25:26.137Z,6732.00
2018-08-14T10:26:26.146Z,7196.00
2018-08-14T10:27:26.138Z,7200.00
2018-08-14T10:28:26.170Z,8880.00
2018-08-14T10:29:26.090Z,7920.00
2018-08-14T10:30:26.079Z,11068.00
2018-08-14T10:31:26.084Z,12660.00
2018-08-14T10:32:26.054Z,12388.00
2018-08-14T10:33:26.054Z,11952.00
2018-08-14T10:34:26.038Z,12936.00
2018-08-14T10:35:26.020Z,14316.00
2018-08-14T10:36:26.049Z,14100.00
2018-08-14T10:37:25.997Z,13336.00
2018-08-14T10:38:25.993Z,12644.00
2018-08-14T10:39:25.978Z,12016.00
2018-08-14T10:40:25.970Z,11344.00
2018-08-14T10:41:25.974Z,11440.00
2018-08-14T10:42:25.942Z,10900.00
2018-08-14T10:43:25.932Z,10460.00
2018-08-14T10:44:25.924Z,10092.00
2018-08-14T10:45:25.906Z,10016.00
2018-08-14T10:46:25.951Z,9096.00
2018-08-14T10:47:25.887Z,10044.00
2018-08-14T10:48:25.873Z,9896.00
2018-08-14T10:49:25.861Z,11432.00
2018-08-14T10:50:25.851Z,12020.00
2018-08-14T10:51:25.857Z,12752.00
2018-08-14T10:52:25.830Z,13764.00
2018-08-14T10:53:25.818Z,13440.00
2018-08-14T10:54:25.809Z,11740.00
2018-08-14T10:55:25.796Z,8432.00
2018-08-14T10:56:25.798Z,7212.00
2018-08-14T10:57:25.774Z,10120.00
2018-08-14T10:58:25.762Z,12028.00
2018-08-14T10:59:25.751Z,12172.00
2018-08-14T11:00:25.745Z,10624.00
2018-08-14T11:01:25.739Z,8804.00
2018-08-14T11:02:25.717Z,8608.00
2018-08-14T11:03:25.715Z,9504.00
2018-08-14T11:04:25.757Z,8916.00
2018-08-14T11:05:25.690Z,7044.00
2018-08-14T11:06:25.688Z,5816.00
2018-08-14T11:07:25.665Z,6256.00
2018-08-14T11:08:25.653Z,6880.00
2018-08-14T11:09:25.645Z,5472.00
2018-08-14T11:10:25.630Z,4772.00
2018-08-14T11:11:25.630Z,4600.00
2018-08-14T11:12:25.611Z,4736.00
2018-08-14T11:13:25.596Z,5176.00
2018-08-14T11:14:25.606Z,5584.00
2018-08-14T11:15:25.588Z,5208.00
2018-08-14T11:16:25.582Z,4844.00
2018-08-14T11:17:25.554Z,4252.00
2018-08-14T11:18:25.541Z,3892.00
2018-08-14T11:19:25.529Z,3504.00
2018-08-14T11:20:25.519Z,4036.00
2018-08-14T11:21:25.519Z,5972.00
2018-08-14T11:22:25.499Z,7644.00
2018-08-14T11:23:25.488Z,7816.00
2018-08-14T11:24:25.498Z,8220.00
2018-08-14T11:25:25.465Z,7384.00
2018-08-14T11:26:25.465Z,6620.00
2018-08-14T11:27:25.441Z,5836.00
2018-08-14T11:28:25.432Z,8120.00
2018-08-14T11:29:25.422Z,10752.00
2018-08-14T11:30:25.411Z,11848.00
2018-08-14T11:31:25.444Z,12552.00
2018-08-14T11:32:25.437Z,12684.00
2018-08-14T11:33:25.376Z,12668.00
2018-08-14T11:34:25.423Z,13152.00
2018-08-14T11:35:25.355Z,12500.00
2018-08-14T11:36:25.351Z,10444.00
2018-08-14T11:37:25.331Z,9048.00
2018-08-14T11:38:25.323Z,8076.00
2018-08-14T11:39:25.348Z,6816.00
2018-08-14T11:40:25.302Z,6080.00
2018-08-14T11:41:25.342Z,5292.00
2018-08-14T11:42:25.276Z,4516.00
2018-08-14T11:43:25.265Z,4200.00
2018-08-14T11:44:25.263Z,4132.00
2018-08-14T11:45:25.241Z,5744.00
2018-08-14T11:46:25.240Z,7084.00
2018-08-14T11:47:25.221Z,6600.00
2018-08-14T11:48:25.214Z,6772.00
2018-08-14T11:49:25.198Z,7356.00
2018-08-14T11:50:25.274Z,6304.00
2018-08-14T11:51:25.203Z,4604.00
2018-08-14T11:52:25.166Z,3264.00
2018-08-14T11:53:25.155Z,2624.00
2018-08-14T11:54:25.145Z,2500.00
2018-08-14T11:55:25.134Z,2464.00
2018-08-14T11:56:25.131Z,2032.00
2018-08-14T11:57:25.152Z,1556.00
2018-08-14T11:58:25.108Z,1368.00
2018-08-14T11:59:25.087Z,1316.00
2018-08-14T12:00:25.080Z,1464.00
2018-08-14T12:01:25.080Z,1500.00
2018-08-14T12:02:25.063Z,1500.00
2018-08-14T12:03:25.042Z,1460.00
2018-08-14T12:04:25.033Z,1496.00
2018-08-14T12:05:25.026Z,1612.00
2018-08-14T12:06:25.027Z,2144.00
2018-08-14T12:07:25.004Z,2592.00
2018-08-14T12:08:24.988Z,3116.00
2018-08-14T12:09:24.977Z,4220.00
2018-08-14T12:10:24.966Z,5112.00
2018-08-14T12:11:24.977Z,6096.00
2018-08-14T12:12:24.945Z,6920.00
2018-08-14T12:13:24.930Z,6880.00
2018-08-14T12:14:24.929Z,6464.00
2018-08-14T12:15:24.917Z,6144.00
2018-08-14T12:16:24.898Z,5760.00
2018-08-14T12:17:24.897Z,5456.00
2018-08-14T12:18:24.914Z,5112.00
2018-08-14T12:19:24.868Z,5016.00
2018-08-14T12:20:24.852Z,4752.00
2018-08-14T12:21:24.851Z,4528.00
2018-08-14T12:22:24.848Z,4476.00
2018-08-14T12:23:24.823Z,4196.00
2018-08-14T12:24:24.811Z,3600.00
2018-08-14T12:25:24.799Z,2928.00
2018-08-14T12:26:24.787Z,2500.00
2018-08-14T12:27:24.878Z,2080.00
2018-08-14T12:28:24.768Z,1948.00
2018-08-14T12:29:24.753Z,1972.00
2018-08-14T12:30:24.743Z,1792.00
2018-08-14T12:31:24.733Z,1764.00
2018-08-14T12:32:24.732Z,1552.00
2018-08-14T12:33:24.713Z,1628.00
2018-08-14T12:34:24.701Z,1756.00
2018-08-14T12:35:24.712Z,1700.00
2018-08-14T12:36:24.685Z,1520.00
2018-08-14T12:37:24.686Z,1216.00
2018-08-14T12:38:24.656Z,1044.00
2018-08-14T12:39:24.649Z,984.00
2018-08-14T12:40:24.704Z,1056.00
2018-08-14T12:41:24.624Z,1068.00
2018-08-14T12:42:24.620Z,1120.00
2018-08-14T12:43:24.603Z,1120.00
2018-08-14T12:44:24.590Z,1100.00
2018-08-14T12:45:24.581Z,1296.00
2018-08-14T12:46:24.566Z,1440.00
2018-08-14T12:47:24.568Z,1488.00
2018-08-14T12:48:24.541Z,1732.00
2018-08-14T12:49:24.536Z,2784.00
2018-08-14T12:50:24.521Z,3444.00
2018-08-14T12:51:24.512Z,3744.00
2018-08-14T12:52:24.514Z,4428.00
2018-08-14T12:53:24.489Z,4928.00
2018-08-14T12:54:24.477Z,5208.00
2018-08-14T12:55:24.465Z,5536.00
2018-08-14T12:56:24.455Z,5788.00
2018-08-14T12:57:24.452Z,5104.00
2018-08-14T12:58:24.475Z,4264.00
2018-08-14T12:59:24.424Z,3968.00
2018-08-14T13:00:24.413Z,4344.00
2018-08-14T13:01:24.403Z,5108.00
2018-08-14T13:02:24.405Z,6008.00
2018-08-14T13:03:24.379Z,5080.00
2018-08-14T13:04:24.365Z,3928.00
2018-08-14T13:05:24.358Z,3772.00
2018-08-14T13:06:24.346Z,3804.00
2018-08-14T13:07:24.341Z,4468.00
2018-08-14T13:08:24.322Z,5568.00
2018-08-14T13:09:24.312Z,6512.00
2018-08-14T13:10:24.309Z,6984.00
2018-08-14T13:11:24.299Z,5536.00
2018-08-14T13:12:24.290Z,5656.00
2018-08-14T13:13:24.267Z,6060.00
2018-08-14T13:14:24.255Z,6440.00
2018-08-14T13:15:24.247Z,7140.00
2018-08-14T13:16:24.231Z,7880.00
2018-08-14T13:17:24.274Z,7780.00
2018-08-14T13:18:24.210Z,7608.00
2018-08-14T13:19:24.197Z,7960.00
2018-08-14T13:20:24.193Z,8472.00
2018-08-14T13:21:24.175Z,7716.00
2018-08-14T13:22:24.186Z,7852.00
2018-08-14T13:23:24.162Z,7700.00
2018-08-14T13:24:24.146Z,7320.00
2018-08-14T13:25:24.131Z,7276.00
2018-08-14T13:26:24.122Z,7936.00
2018-08-14T13:27:24.124Z,7196.00
2018-08-14T13:28:24.101Z,6880.00
2018-08-14T13:29:24.093Z,7624.00
2018-08-14T13:30:24.081Z,7048.00
2018-08-14T13:31:24.067Z,6332.00
2018-08-14T13:32:24.066Z,6624.00
2018-08-14T13:33:24.045Z,7272.00
2018-08-14T13:34:24.031Z,7448.00
2018-08-14T13:35:24.021Z,7116.00
2018-08-14T13:36:24.011Z,6776.00
2018-08-14T13:37:24.010Z,6428.00
2018-08-14T13:38:24.001Z,5768.00
2018-08-14T13:39:23.978Z,4940.00
2018-08-14T13:40:23.967Z,4012.00
2018-08-14T13:41:23.957Z,3124.00
2018-08-14T13:42:23.958Z,2692.00
2018-08-14T13:43:23.942Z,2392.00
2018-08-14T13:44:23.928Z,2700.00
2018-08-14T13:45:23.910Z,3080.00
2018-08-14T13:46:23.899Z,2960.00
2018-08-14T13:47:23.897Z,2676.00
2018-08-14T13:48:23.876Z,2536.00
2018-08-14T13:49:23.869Z,2624.00
2018-08-14T13:50:23.857Z,2784.00
2018-08-14T13:51:23.844Z,2704.00
2018-08-14T13:52:23.841Z,3236.00
2018-08-14T13:53:23.863Z,4108.00
2018-08-14T13:54:23.813Z,4888.00
2018-08-14T13:55:23.798Z,5616.00
2018-08-14T13:56:23.789Z,6416.00
2018-08-14T13:57:23.785Z,7088.00
2018-08-14T13:58:23.766Z,7228.00
2018-08-14T13:59:23.754Z,7192.00
2018-08-14T14:00:23.747Z,7108.00
2018-08-14T14:01:23.732Z,6748.00
2018-08-14T14:02:23.731Z,5916.00
2018-08-14T14:03:23.710Z,5264.00
2018-08-14T14:04:23.702Z,4116.00
2018-08-14T14:05:23.696Z,3152.00
2018-08-14T14:06:23.678Z,3232.00
2018-08-14T14:07:23.681Z,3080.00
2018-08-14T14:08:23.660Z,2544.00
2018-08-14T14:09:23.645Z,2236.00
2018-08-14T14:10:23.639Z,2120.00
2018-08-14T14:11:23.619Z,1764.00
2018-08-14T14:12:23.628Z,1676.00
2018-08-14T14:13:23.652Z,1728.00
2018-08-14T14:14:23.587Z,1712.00
2018-08-14T14:15:23.579Z,1644.00
2018-08-14T14:16:23.565Z,1672.00
2018-08-14T14:17:23.555Z,1788.00
2018-08-14T14:18:23.553Z,2040.00
2018-08-14T14:19:23.535Z,2336.00
2018-08-14T14:20:23.523Z,2800.00
2018-08-14T14:21:23.510Z,3188.00
2018-08-14T14:22:23.498Z,3952.00
2018-08-14T14:23:23.500Z,4728.00
2018-08-14T14:24:23.478Z,5464.00
2018-08-14T14:25:23.484Z,6268.00
2018-08-14T14:26:23.455Z,6776.00
2018-08-14T14:27:23.455Z,7000.00
2018-08-14T14:28:23.448Z,6940.00
2018-08-14T14:29:23.424Z,6692.00
2018-08-14T14:30:23.412Z,6772.00
2018-08-14T14:31:23.405Z,7396.00
2018-08-14T14:32:23.406Z,8356.00
2018-08-14T14:33:23.386Z,8560.00
2018-08-14T14:34:23.366Z,7784.00
2018-08-14T14:35:23.356Z,6232.00
2018-08-14T14:36:23.343Z,4984.00
2018-08-14T14:37:23.385Z,4512.00
2018-08-14T14:38:23.339Z,3788.00
2018-08-14T14:39:23.310Z,4196.00
2018-08-14T14:40:23.299Z,4144.00
2018-08-14T14:41:23.291Z,4028.00
2018-08-14T14:42:23.277Z,3900.00
2018-08-14T14:43:23.319Z,3924.00
2018-08-14T14:44:23.255Z,4180.00
2018-08-14T14:45:23.243Z,4364.00
2018-08-14T14:46:23.252Z,4496.00
2018-08-14T14:47:23.223Z,4584.00
2018-08-14T14:48:23.226Z,4344.00
2018-08-14T14:49:23.198Z,3860.00
2018-08-14T14:50:23.200Z,3800.00
2018-08-14T14:51:23.177Z,3684.00
2018-08-14T14:52:23.175Z,4016.00
2018-08-14T14:53:23.168Z,4180.00
2018-08-14T14:54:23.144Z,4428.00
2018-08-14T14:55:23.130Z,4804.00
2018-08-14T14:56:23.137Z,5108.00
2018-08-14T14:57:23.111Z,5620.00
2018-08-14T14:58:23.127Z,6280.00
2018-08-14T14:59:23.116Z,6404.00
2018-08-14T15:00:23.079Z,6376.00
2018-08-14T15:01:23.073Z,6084.00
2018-08-14T15:02:23.057Z,5704.00
2018-08-14T15:03:23.055Z,5896.00
2018-08-14T15:04:23.034Z,5340.00
2018-08-14T15:05:23.031Z,5480.00
2018-08-14T15:06:23.008Z,5824.00
2018-08-14T15:07:22.999Z,5856.00
2018-08-14T15:08:23.016Z,5428.00
2018-08-14T15:09:22.975Z,4836.00
2018-08-14T15:10:22.971Z,4800.00
2018-08-14T15:11:22.956Z,5800.00
2018-08-14T15:12:22.943Z,6680.00
2018-08-14T15:13:22.941Z,6664.00
2018-08-14T15:14:22.929Z,6564.00
2018-08-14T15:15:22.947Z,6472.00
2018-08-14T15:16:22.900Z,7080.00
2018-08-14T15:17:22.888Z,7112.00
2018-08-14T15:18:22.919Z,5668.00
2018-08-14T15:19:22.867Z,5272.00
2018-08-14T15:20:22.854Z,5244.00
2018-08-14T15:21:22.842Z,4620.00
2018-08-14T15:22:22.835Z,3848.00
2018-08-14T15:23:22.835Z,3212.00
2018-08-14T15:24:22.811Z,3972.00
2018-08-14T15:25:22.797Z,2992.00
2018-08-14T15:26:22.789Z,2100.00
2018-08-14T15:27:22.781Z,2028.00
2018-08-14T15:28:22.775Z,1944.00
2018-08-14T15:29:22.762Z,2052.00
2018-08-14T15:30:22.745Z,2004.00
2018-08-14T15:31:22.733Z,1872.00
2018-08-14T15:32:22.720Z,1932.00
2018-08-14T15:33:22.720Z,2068.00
2018-08-14T15:34:22.700Z,2036.00
2018-08-14T15:35:22.688Z,1884.00
2018-08-14T15:36:22.677Z,1956.00
2018-08-14T15:37:22.668Z,2276.00
2018-08-14T15:38:22.664Z,2916.00
2018-08-14T15:39:22.642Z,3532.00
2018-08-14T15:40:22.638Z,4280.00
2018-08-14T15:41:22.649Z,5452.00
2018-08-14T15:42:22.610Z,5536.00
2018-08-14T15:43:22.614Z,5032.00
2018-08-14T15:44:22.589Z,4580.00
2018-08-14T15:45:22.584Z,4792.00
2018-08-14T15:46:22.581Z,5056.00
2018-08-14T15:47:22.556Z,5332.00
2018-08-14T15:48:22.563Z,5160.00
2018-08-14T15:49:22.577Z,4844.00
2018-08-14T15:50:22.525Z,4336.00
2018-08-14T15:51:22.527Z,4116.00
2018-08-14T15:52:22.502Z,4388.00
2018-08-14T15:53:22.496Z,4504.00
2018-08-14T15:54:22.482Z,4332.00
2018-08-14T15:55:22.466Z,3952.00
2018-08-14T15:56:22.455Z,3944.00
2018-08-14T15:57:22.443Z,4280.00
2018-08-14T15:58:22.442Z,3936.00
2018-08-14T15:59:22.425Z,3096.00
2018-08-14T16:00:22.413Z,2928.00
2018-08-14T16:01:22.400Z,3088.00
2018-08-14T16:02:22.401Z,3496.00
2018-08-14T16:03:22.391Z,4300.00